Time;durP1;ratioP1;P1;durP2;ratioP2;P2;SDS_P1;SDS_P2;PMS_P1;PMS_P2;Temp;Humidity;BMP_temperature;BMP_pressure;BME280_temperature;BME280_humidity;BME280_pressure;Samples;Min_cycle;Max_cycle;Signal;HPM_P1;HPM_P2
2023/07/10 00:02:48;;;;;;;4.50;4.10;;;26.40;25.60;;;;;;10400161;28;20230;-79
2023/07/10 00:07:52;;;;;;;4.57;3.97;;;26.30;25.70;;;;;;10406541;28;20376;-79
2023/07/10 00:12:55;;;;;;;4.10;3.70;;;26.30;25.40;;;;;;10404604;28;20226;-78
2023/07/10 00:18:00;;;;;;;4.20;3.90;;;26.20;25.50;;;;;;10409321;28;20239;-78
2023/07/10 00:23:03;;;;;;;4.40;3.90;;;26.10;25.90;;;;;;10400646;28;20671;-78
2023/07/10 00:28:14;;;;;;;5.37;4.30;;;26.10;25.60;;;;;;10404938;28;20234;-79
2023/07/10 00:33:20;;;;;;;4.67;4.17;;;26.00;26.50;;;;;;10403712;28;20222;-78
2023/07/10 00:38:29;;;;;;;6.03;3.90;;;26.00;26.20;;;;;;10403014;28;20316;-78
2023/07/10 00:43:36;;;;;;;6.33;3.90;;;25.80;26.70;;;;;;10403842;28;20230;-78
2023/07/10 00:48:46;;;;;;;5.60;3.97;;;25.70;26.70;;;;;;10404791;28;21018;-78
2023/07/10 00:53:52;;;;;;;3.90;3.53;;;25.60;26.90;;;;;;10402781;28;20253;-78
2023/07/10 00:58:55;;;;;;;3.70;3.40;;;25.40;26.40;;;;;;10404232;28;20671;-79
2023/07/10 01:04:02;;;;;;;5.00;3.60;;;25.20;26.40;;;;;;10406782;28;20232;-78
2023/07/10 01:09:08;;;;;;;5.93;4.40;;;25.10;27.30;;;;;;10404185;28;20802;-78
2023/07/10 01:14:12;;;;;;;4.40;4.00;;;25.10;27.00;;;;;;10401706;28;20221;-78
2023/07/10 01:19:21;;;;;;;4.97;4.00;;;25.10;26.80;;;;;;10404077;28;20233;-78
2023/07/10 01:24:25;;;;;;;4.50;4.10;;;25.10;27.60;;;;;;10402286;28;20230;-78
2023/07/10 01:29:34;;;;;;;4.70;4.23;;;25.00;27.40;;;;;;10404787;28;20226;-78
2023/07/10 01:34:42;;;;;;;4.50;3.83;;;24.90;27.50;;;;;;10405088;28;20316;-79
2023/07/10 01:39:55;;;;;;;5.00;4.13;;;24.90;28.10;;;;;;10411884;28;20687;-79
2023/07/10 01:44:58;;;;;;;6.00;4.63;;;24.80;27.80;;;;;;10405767;28;20656;-79
2023/07/10 01:50:01;;;;;;;4.23;3.93;;;24.80;27.30;;;;;;10412059;28;20731;-78
2023/07/10 01:55:07;;;;;;;4.60;3.87;;;24.60;27.20;;;;;;10411166;28;20225;-78
2023/07/10 02:00:12;;;;;;;4.97;4.33;;;24.50;27.90;;;;;;10411341;28;20227;-78
2023/07/10 02:05:15;;;;;;;8.90;4.33;;;24.50;27.80;;;;;;10411170;28;20225;-78
2023/07/10 02:10:20;;;;;;;4.80;4.07;;;24.40;27.80;;;;;;10411111;28;20321;-78
2023/07/10 02:15:34;;;;;;;4.30;3.90;;;24.30;28.20;;;;;;10411308;28;20320;-78
2023/07/10 02:20:39;;;;;;;4.20;3.73;;;24.20;28.10;;;;;;10411341;28;20221;-78
2023/07/10 02:25:43;;;;;;;4.73;3.90;;;24.10;28.10;;;;;;10410723;28;20261;-78
2023/07/10 02:30:47;;;;;;;5.30;4.03;;;24.00;28.00;;;;;;10403743;28;20588;-78
2023/07/10 02:35:50;;;;;;;4.80;4.00;;;24.00;28.00;;;;;;10411779;28;20635;-78
2023/07/10 02:40:55;;;;;;;5.90;4.30;;;24.00;28.00;;;;;;10410408;28;20234;-79
2023/07/10 02:45:58;;;;;;;4.13;3.83;;;24.00;28.20;;;;;;10409873;28;20230;-78
2023/07/10 02:51:02;;;;;;;7.47;4.40;;;23.90;27.90;;;;;;10409874;28;20229;-78
2023/07/10 02:56:06;;;;;;;4.90;4.37;;;23.80;27.90;;;;;;10410111;28;20230;-78
2023/07/10 03:01:16;;;;;;;4.87;3.83;;;23.80;28.50;;;;;;10406865;28;20309;-79
2023/07/10 03:06:20;;;;;;;5.13;4.00;;;23.80;28.90;;;;;;10409397;28;20261;-78
2023/07/10 03:11:28;;;;;;;4.80;3.60;;;23.80;28.20;;;;;;10409107;28;20245;-78
2023/07/10 03:16:31;;;;;;;6.43;4.30;;;23.70;29.10;;;;;;10408698;28;20247;-79
2023/07/10 03:21:35;;;;;;;5.57;4.60;;;23.60;28.40;;;;;;10409221;28;20236;-79
2023/07/10 03:26:39;;;;;;;6.60;4.87;;;23.50;28.60;;;;;;10414093;28;20232;-79
2023/07/10 03:31:43;;;;;;;4.97;4.37;;;23.50;29.10;;;;;;10407565;28;20312;-78
2023/07/10 03:36:47;;;;;;;6.30;5.27;;;23.40;28.90;;;;;;10406670;28;20234;-79
2023/07/10 03:41:51;;;;;;;6.60;4.23;;;23.30;29.10;;;;;;10408411;28;20222;-79
2023/07/10 03:46:56;;;;;;;5.63;4.00;;;23.20;29.40;;;;;;10408246;28;20276;-79
2023/07/10 03:52:06;;;;;;;5.20;4.50;;;23.10;29.10;;;;;;10403059;28;20217;-79
2023/07/10 03:57:11;;;;;;;5.10;4.60;;;23.10;30.10;;;;;;10401485;28;20257;-79
2023/07/10 04:02:14;;;;;;;5.33;4.83;;;23.10;29.70;;;;;;10399863;28;20588;-78
2023/07/10 04:07:18;;;;;;;5.03;4.53;;;23.00;29.60;;;;;;10407779;28;20308;-78
2023/07/10 04:12:24;;;;;;;6.30;4.90;;;22.90;29.80;;;;;;10405583;28;20221;-79
2023/07/10 04:17:30;;;;;;;6.03;4.43;;;23.00;30.80;;;;;;10399520;28;20230;-78
2023/07/10 04:22:39;;;;;;;7.73;4.70;;;22.90;29.80;;;;;;10405417;28;20225;-78
2023/07/10 04:27:45;;;;;;;6.40;4.40;;;23.00;30.90;;;;;;10404950;28;20240;-79
2023/07/10 04:32:50;;;;;;;7.27;4.60;;;23.10;30.60;;;;;;10399709;28;20227;-79
2023/07/10 04:37:53;;;;;;;6.60;4.53;;;23.10;30.80;;;;;;10408356;28;20961;-79
2023/07/10 04:42:57;;;;;;;8.27;4.87;;;23.20;30.30;;;;;;10405727;28;21417;-79
2023/07/10 04:48:01;;;;;;;6.00;4.63;;;23.20;30.80;;;;;;10395874;28;20243;-77
2023/07/10 04:53:04;;;;;;;5.87;5.33;;;23.20;30.40;;;;;;10407340;28;20234;-77
2023/07/10 04:58:08;;;;;;;6.50;4.60;;;23.20;30.70;;;;;;10406940;28;20234;-77
2023/07/10 05:03:12;;;;;;;5.80;5.17;;;23.30;31.20;;;;;;10407516;28;20308;-77
2023/07/10 05:08:17;;;;;;;5.07;4.40;;;23.30;30.90;;;;;;10406590;28;20710;-77
2023/07/10 05:13:24;;;;;;;5.57;4.90;;;23.40;31.80;;;;;;10406417;28;20236;-77
2023/07/10 05:18:29;;;;;;;7.10;5.40;;;23.40;31.90;;;;;;10406857;28;20234;-77
2023/07/10 05:23:32;;;;;;;7.47;5.23;;;23.50;31.50;;;;;;10406845;28;20229;-76
2023/07/10 05:28:38;;;;;;;6.57;5.00;;;23.60;31.50;;;;;;10406448;28;20677;-78
2023/07/10 05:33:42;;;;;;;7.93;7.13;;;23.60;32.30;;;;;;10405059;28;20392;-78
2023/07/10 05:38:48;;;;;;;7.53;5.57;;;23.70;32.20;;;;;;10407207;28;20225;-77
2023/07/10 05:43:52;;;;;;;7.33;5.33;;;23.80;32.20;;;;;;10407501;28;20231;-78
2023/07/10 05:48:55;;;;;;;6.33;4.97;;;23.90;33.00;;;;;;10407059;28;20226;-77
2023/07/10 05:53:59;;;;;;;5.73;4.67;;;24.10;32.50;;;;;;10407706;28;20226;-76
2023/07/10 05:59:03;;;;;;;5.93;5.33;;;24.20;32.50;;;;;;10407053;28;20249;-76
2023/07/10 06:04:06;;;;;;;5.37;4.87;;;24.30;32.90;;;;;;10407611;28;20225;-76
2023/07/10 06:09:10;;;;;;;5.63;4.70;;;24.50;32.40;;;;;;10407505;28;20316;-76
2023/07/10 06:14:15;;;;;;;5.77;4.87;;;24.60;32.50;;;;;;10407445;28;20581;-76
2023/07/10 06:19:18;;;;;;;5.10;4.40;;;24.70;32.80;;;;;;10407056;28;20226;-76
2023/07/10 06:24:21;;;;;;;7.23;4.77;;;24.80;32.50;;;;;;10414168;28;20260;-77
2023/07/10 06:29:26;;;;;;;5.10;4.60;;;24.90;32.40;;;;;;10414094;28;20232;-76
2023/07/10 06:34:30;;;;;;;5.13;4.67;;;25.00;32.70;;;;;;10414159;28;20724;-76
2023/07/10 06:39:33;;;;;;;6.07;5.03;;;25.10;32.60;;;;;;10413937;28;20230;-76
2023/07/10 06:44:37;;;;;;;5.63;4.53;;;25.30;32.70;;;;;;10413028;28;20236;-76
2023/07/10 06:49:41;;;;;;;6.60;4.40;;;25.40;32.70;;;;;;10413474;28;20936;-76
2023/07/10 06:54:44;;;;;;;4.90;4.27;;;25.60;32.20;;;;;;10401060;28;20227;-76
2023/07/10 06:59:48;;;;;;;4.97;4.43;;;25.80;31.70;;;;;;10400250;28;20715;-76
2023/07/10 07:04:51;;;;;;;5.70;4.73;;;26.00;30.60;;;;;;10404388;28;20258;-76
2023/07/10 07:09:55;;;;;;;5.30;4.80;;;26.20;30.20;;;;;;10409457;28;20593;-77
2023/07/10 07:14:59;;;;;;;5.70;5.20;;;26.30;29.80;;;;;;10409747;28;20306;-77
2023/07/10 07:20:03;;;;;;;7.13;4.93;;;26.40;29.40;;;;;;10408654;28;20237;-77
2023/07/10 07:25:07;;;;;;;6.17;4.90;;;26.40;29.70;;;;;;10408686;28;20228;-77
2023/07/10 07:30:12;;;;;;;8.53;5.17;;;26.40;29.70;;;;;;10404623;28;20221;-77
2023/07/10 07:35:15;;;;;;;6.97;5.13;;;26.30;29.90;;;;;;10401973;28;20230;-77
2023/07/10 07:40:19;;;;;;;6.90;5.13;;;26.20;30.80;;;;;;10404272;28;20218;-77
2023/07/10 07:45:23;;;;;;;6.47;5.43;;;26.10;31.20;;;;;;10403688;28;20330;-76
2023/07/10 07:50:26;;;;;;;8.60;6.10;;;25.90;32.60;;;;;;10401735;28;20348;-77
2023/07/10 07:55:30;;;;;;;7.77;5.50;;;25.70;32.60;;;;;;10405477;28;20236;-78
2023/07/10 08:00:35;;;;;;;9.33;5.90;;;25.40;33.00;;;;;;10404439;28;20308;-77
2023/07/10 08:05:38;;;;;;;8.30;5.97;;;25.00;35.00;;;;;;10408751;28;20253;-77
2023/07/10 08:10:45;;;;;;;7.67;5.80;;;24.60;34.50;;;;;;10407814;28;20539;-77
2023/07/10 08:15:50;;;;;;;11.73;5.40;;;24.30;36.20;;;;;;10399131;28;20265;-77
2023/07/10 08:21:01;;;;;;;7.63;5.63;;;24.10;36.90;;;;;;10410365;28;20589;-77
2023/07/10 08:26:05;;;;;;;9.17;5.40;;;24.00;38.60;;;;;;10403024;28;20229;-76
2023/07/10 08:31:10;;;;;;;6.73;5.70;;;24.00;37.50;;;;;;10397383;28;20256;-76
2023/07/10 08:36:13;;;;;;;6.17;5.60;;;24.20;38.30;;;;;;10401106;28;20661;-76
2023/07/10 08:41:19;;;;;;;6.90;5.87;;;24.30;37.50;;;;;;10402234;28;20225;-76
2023/07/10 08:46:26;;;;;;;7.30;6.03;;;24.50;39.60;;;;;;10400099;28;20657;-76
2023/07/10 08:51:39;;;;;;;7.03;6.40;;;24.60;40.00;;;;;;10398004;28;20221;-76
2023/07/10 08:56:48;;;;;;;7.33;6.40;;;24.70;40.30;;;;;;10399502;28;20591;-76
2023/07/10 09:01:53;;;;;;;6.77;6.10;;;24.80;40.70;;;;;;10398317;28;20447;-73
2023/07/10 09:07:00;;;;;;;7.20;6.37;;;24.90;40.30;;;;;;10394959;28;20237;-73
2023/07/10 09:12:09;;;;;;;7.40;6.20;;;24.90;40.80;;;;;;10396835;28;20280;-77
2023/07/10 09:17:20;;;;;;;7.90;6.27;;;25.00;40.50;;;;;;10407440;28;20226;-77
2023/07/10 09:22:25;;;;;;;7.03;5.67;;;25.20;41.00;;;;;;10400880;28;20229;-77
2023/07/10 09:27:29;;;;;;;7.60;6.03;;;25.40;39.30;;;;;;10405779;28;20236;-77
2023/07/10 09:32:38;;;;;;;6.67;5.40;;;25.50;39.40;;;;;;10404818;28;20257;-77
2023/07/10 09:37:42;;;;;;;7.33;5.93;;;25.70;40.40;;;;;;10402627;28;20752;-77
2023/07/10 09:42:46;;;;;;;6.50;5.90;;;25.90;39.10;;;;;;10400879;28;20316;-79
2023/07/10 09:47:50;;;;;;;6.60;6.00;;;26.10;38.60;;;;;;10474261;22;20633;-79
2023/07/10 09:52:55;;;;;;;6.50;5.93;;;26.30;39.30;;;;;;10434682;28;20233;-80
2023/07/10 09:58:00;;;;;;;6.40;5.80;;;26.50;38.60;;;;;;10431066;28;20248;-79
2023/07/10 10:03:15;;;;;;;5.73;5.13;;;26.70;38.10;;;;;;10414908;28;20299;-78
2023/07/10 10:08:22;;;;;;;8.70;5.70;;;26.90;39.80;;;;;;10411166;28;20283;-78
2023/07/10 10:13:28;;;;;;;6.20;5.60;;;27.20;37.40;;;;;;10411543;28;20266;-77
2023/07/10 10:18:41;;;;;;;5.83;5.23;;;27.50;36.60;;;;;;10410864;28;20317;-78
2023/07/10 10:23:48;;;;;;;7.60;5.57;;;27.80;36.70;;;;;;10406422;28;20217;-78
2023/07/10 10:29:00;;;;;;;5.13;4.63;;;28.00;35.50;;;;;;10400344;28;21130;-77
2023/07/10 10:34:13;;;;;;;6.97;5.13;;;28.30;35.90;;;;;;10397306;28;20648;-77
2023/07/10 10:39:27;;;;;;;5.57;5.07;;;28.70;36.10;;;;;;10400035;28;20225;-76
2023/07/10 10:44:46;;;;;;;5.67;5.17;;;29.00;35.50;;;;;;10403588;28;20229;-79
2023/07/10 10:50:06;;;;;;;4.87;4.47;;;29.30;34.60;;;;;;10403251;28;20835;-79
2023/07/10 10:55:31;;;;;;;5.17;4.70;;;29.60;33.50;;;;;;10401891;28;20698;-76
2023/07/10 11:00:42;;;;;;;4.93;4.53;;;29.90;33.70;;;;;;10413953;28;20220;-75
2023/07/10 11:05:50;;;;;;;6.20;5.00;;;30.20;32.90;;;;;;10411626;28;20234;-74
2023/07/10 11:10:54;;;;;;;6.63;4.30;;;30.40;32.20;;;;;;10408353;28;20237;-76
2023/07/10 11:15:58;;;;;;;4.50;4.10;;;30.70;32.00;;;;;;10402561;28;20230;-79
2023/07/10 11:21:04;;;;;;;4.40;4.00;;;30.90;30.90;;;;;;10409434;28;20318;-78
2023/07/10 11:26:13;;;;;;;3.93;3.53;;;31.10;30.00;;;;;;10403074;28;20231;-80
2023/07/10 11:31:28;;;;;;;4.67;3.93;;;31.30;29.50;;;;;;10400664;28;20218;-79
2023/07/10 11:36:41;;;;;;;4.40;4.00;;;31.50;28.60;;;;;;10403043;28;20234;-79
2023/07/10 11:42:06;;;;;;;4.73;3.70;;;31.70;28.10;;;;;;10401588;28;20233;-82
2023/07/10 11:47:20;;;;;;;4.00;3.70;;;31.90;27.00;;;;;;10387549;28;21358;-79
2023/07/10 11:52:32;;;;;;;3.70;3.40;;;32.10;26.40;;;;;;10395447;28;20825;-80
2023/07/10 11:57:37;;;;;;;3.60;3.27;;;32.20;27.20;;;;;;10397853;28;20326;-77
2023/07/10 12:02:45;;;;;;;3.60;3.30;;;32.40;27.20;;;;;;10413849;28;20223;-77
2023/07/10 12:07:55;;;;;;;3.87;3.50;;;32.50;26.10;;;;;;10393383;28;20318;-76
2023/07/10 12:13:14;;;;;;;3.70;3.40;;;32.60;25.10;;;;;;10397945;28;20231;-79
2023/07/10 12:18:21;;;;;;;3.37;3.07;;;32.70;25.90;;;;;;10399935;28;20234;-77
2023/07/10 12:23:26;;;;;;;4.53;3.40;;;32.90;24.80;;;;;;10393052;28;20318;-78
2023/07/10 12:28:30;;;;;;;3.50;3.20;;;32.90;25.20;;;;;;10386902;28;20236;-78
2023/07/10 12:33:41;;;;;;;3.70;3.40;;;32.90;25.60;;;;;;10391555;28;20266;-80
2023/07/10 12:38:46;;;;;;;3.90;3.63;;;32.70;24.70;;;;;;10395465;28;20238;-80
2023/07/10 12:43:54;;;;;;;4.20;3.80;;;32.70;25.40;;;;;;10395507;28;20874;-78
2023/07/10 12:49:01;;;;;;;4.50;4.10;;;32.70;25.60;;;;;;10390097;28;20925;-78
2023/07/10 12:54:18;;;;;;;5.23;4.00;;;32.80;25.20;;;;;;10393346;28;20224;-74
2023/07/10 12:59:26;;;;;;;4.40;4.00;;;32.90;25.50;;;;;;10390662;28;21379;-79
2023/07/10 13:04:32;;;;;;;4.37;3.97;;;33.00;24.80;;;;;;10400183;28;20316;-81
2023/07/10 13:09:37;;;;;;;4.70;4.30;;;33.10;25.00;;;;;;10393736;28;20726;-81
2023/07/10 13:14:41;;;;;;;4.70;4.27;;;33.20;24.70;;;;;;10387754;28;20231;-79
2023/07/10 13:19:44;;;;;;;4.87;4.43;;;33.30;25.30;;;;;;10388433;28;20230;-80
2023/07/10 13:25:11;;;;;;;4.73;4.37;;;33.30;25.00;;;;;;10374188;28;20238;-80
2023/07/10 13:30:19;;;;;;;4.37;4.07;;;33.40;24.60;;;;;;10383116;28;20234;-75
2023/07/10 13:35:22;;;;;;;4.53;4.13;;;33.50;24.40;;;;;;10388453;28;20238;-75
2023/07/10 13:40:27;;;;;;;4.80;4.40;;;33.60;24.60;;;;;;10388479;28;20263;-76
2023/07/10 13:45:30;;;;;;;4.97;4.57;;;33.60;24.30;;;;;;10393614;28;20928;-76
2023/07/10 13:50:33;;;;;;;5.20;4.70;;;33.60;24.60;;;;;;10397984;28;20844;-76
2023/07/10 13:55:38;;;;;;;5.07;4.57;;;33.70;24.30;;;;;;10401269;28;20224;-76
2023/07/10 14:00:41;;;;;;;5.20;4.70;;;33.80;23.70;;;;;;10401511;28;20236;-76
2023/07/10 14:05:46;;;;;;;5.47;4.60;;;33.90;23.90;;;;;;10402615;28;20667;-76
2023/07/10 14:10:52;;;;;;;5.23;4.67;;;33.90;23.80;;;;;;10409884;28;20601;-78
2023/07/10 14:16:00;;;;;;;4.63;4.23;;;33.90;23.10;;;;;;10400679;28;20317;-77
2023/07/10 14:21:04;;;;;;;5.77;4.60;;;33.80;23.10;;;;;;10403607;28;20235;-78
2023/07/10 14:26:14;;;;;;;4.67;4.37;;;33.90;23.80;;;;;;10404556;28;20237;-77
2023/07/10 14:31:17;;;;;;;4.60;4.20;;;33.90;23.10;;;;;;10403363;28;20571;-79
2023/07/10 14:36:22;;;;;;;5.23;4.40;;;34.00;23.20;;;;;;10398398;28;20292;-74
2023/07/10 14:41:28;;;;;;;5.97;4.70;;;34.10;23.20;;;;;;10399396;28;20720;-74
2023/07/10 14:46:33;;;;;;;5.27;4.77;;;34.20;23.30;;;;;;10404674;28;20237;-75
2023/07/10 14:51:37;;;;;;;5.53;5.03;;;34.30;23.40;;;;;;10399253;28;20232;-74
2023/07/10 14:56:43;;;;;;;5.40;4.93;;;34.30;23.00;;;;;;10399707;28;20308;-73
2023/07/10 15:01:47;;;;;;;5.40;4.90;;;34.30;22.80;;;;;;10407148;28;20253;-74
2023/07/10 15:06:51;;;;;;;5.33;4.93;;;34.30;23.30;;;;;;10406306;28;20229;-76
2023/07/10 15:11:55;;;;;;;5.40;5.00;;;34.30;23.30;;;;;;10411596;28;21150;-74
2023/07/10 15:16:59;;;;;;;6.40;5.20;;;34.30;22.90;;;;;;10404115;28;20234;-74
2023/07/10 15:22:02;;;;;;;5.13;4.70;;;34.30;23.20;;;;;;10405012;28;20332;-76
2023/07/10 15:27:07;;;;;;;5.90;5.40;;;34.30;22.80;;;;;;10414186;28;20329;-76
2023/07/10 15:32:16;;;;;;;4.80;4.50;;;34.30;22.20;;;;;;10412486;28;20726;-75
2023/07/10 15:37:21;;;;;;;5.27;4.87;;;34.30;21.70;;;;;;10403082;28;20320;-77
2023/07/10 15:42:27;;;;;;;5.17;4.77;;;34.20;22.00;;;;;;10421013;28;20737;-78
2023/07/10 15:47:31;;;;;;;5.67;5.17;;;34.20;20.90;;;;;;10406532;28;20229;-78
2023/07/10 15:52:38;;;;;;;5.10;4.70;;;34.20;21.20;;;;;;10403914;28;20226;-77
2023/07/10 15:57:45;;;;;;;4.67;4.27;;;34.10;20.40;;;;;;10410970;28;20235;-76
2023/07/10 16:02:49;;;;;;;4.37;4.07;;;34.10;19.70;;;;;;10404289;28;20228;-79
2023/07/10 16:07:54;;;;;;;4.57;4.17;;;34.00;19.90;;;;;;10413566;28;20233;-79
2023/07/10 16:13:00;;;;;;;4.40;4.00;;;34.00;20.00;;;;;;10405590;28;20732;-73
2023/07/10 16:18:12;;;;;;;4.73;4.07;;;34.00;20.20;;;;;;10404926;28;20237;-73
2023/07/10 16:23:22;;;;;;;5.00;4.60;;;34.00;19.00;;;;;;10405317;28;20234;-73
2023/07/10 16:28:29;;;;;;;4.63;4.17;;;34.00;19.50;;;;;;10401818;28;20608;-73
2023/07/10 16:33:33;;;;;;;5.27;4.47;;;33.90;19.30;;;;;;10405124;28;20782;-73
2023/07/10 16:38:36;;;;;;;4.73;4.33;;;33.90;19.70;;;;;;10404860;28;20253;-72
2023/07/10 16:43:42;;;;;;;5.00;4.17;;;33.90;20.10;;;;;;10405756;28;20229;-74
2023/07/10 16:48:47;;;;;;;4.40;4.10;;;34.00;19.70;;;;;;10407330;28;20335;-74
2023/07/10 16:53:51;;;;;;;4.67;4.27;;;34.00;19.30;;;;;;10401160;28;20226;-74
2023/07/10 16:58:56;;;;;;;4.67;4.37;;;34.00;19.60;;;;;;10398450;28;20233;-74
2023/07/10 17:04:01;;;;;;;4.60;4.20;;;34.00;19.20;;;;;;10401732;28;20223;-73
2023/07/10 17:09:05;;;;;;;4.70;4.30;;;34.00;19.20;;;;;;10397988;28;20235;-74
2023/07/10 17:14:14;;;;;;;4.87;4.47;;;34.00;19.40;;;;;;10405514;28;20809;-73
2023/07/10 17:19:18;;;;;;;5.10;4.17;;;34.00;18.70;;;;;;10403074;28;20327;-79
2023/07/10 17:24:22;;;;;;;5.20;4.80;;;33.90;19.40;;;;;;10407617;28;20233;-79
2023/07/10 17:29:27;;;;;;;4.20;3.90;;;33.90;20.00;;;;;;10407197;28;20708;-78
2023/07/10 17:34:30;;;;;;;5.13;4.63;;;33.90;19.50;;;;;;10405182;28;20236;-77
2023/07/10 17:39:33;;;;;;;5.13;4.63;;;33.80;19.60;;;;;;10415018;28;20247;-75
2023/07/10 17:44:38;;;;;;;5.10;4.73;;;33.90;19.80;;;;;;10408729;28;20234;-75
2023/07/10 17:49:41;;;;;;;4.93;4.40;;;33.80;19.60;;;;;;10406959;28;20236;-75
2023/07/10 17:54:46;;;;;;;4.90;4.50;;;33.80;19.70;;;;;;10400769;28;20261;-76
2023/07/10 17:59:51;;;;;;;4.50;4.10;;;33.80;19.80;;;;;;10402617;28;20709;-75
2023/07/10 18:04:54;;;;;;;4.77;4.40;;;33.70;19.80;;;;;;10404924;28;20311;-77
2023/07/10 18:09:57;;;;;;;5.03;4.63;;;33.70;19.90;;;;;;10405394;28;20238;-77
2023/07/10 18:15:02;;;;;;;5.10;4.70;;;33.60;19.80;;;;;;10404212;28;20998;-77
2023/07/10 18:20:06;;;;;;;6.43;4.73;;;33.60;20.10;;;;;;10414203;28;20227;-78
2023/07/10 18:25:17;;;;;;;4.63;4.23;;;33.50;20.20;;;;;;10411709;28;20270;-77
2023/07/10 18:30:22;;;;;;;4.57;4.27;;;33.50;20.20;;;;;;10413520;28;20302;-78
2023/07/10 18:35:25;;;;;;;4.70;4.30;;;33.40;20.20;;;;;;10415100;28;20295;-76
2023/07/10 18:40:28;;;;;;;4.80;4.40;;;33.30;20.10;;;;;;10413096;28;20317;-75
2023/07/10 18:45:33;;;;;;;4.33;3.93;;;33.20;20.20;;;;;;10407738;28;20269;-75
2023/07/10 18:50:36;;;;;;;4.97;4.57;;;33.10;20.10;;;;;;10411818;28;20337;-76
2023/07/10 18:55:39;;;;;;;4.40;4.10;;;33.00;20.30;;;;;;10413140;28;20302;-75
2023/07/10 19:00:44;;;;;;;6.57;4.13;;;32.90;19.50;;;;;;10407350;28;20246;-75
2023/07/10 19:05:50;;;;;;;5.43;3.90;;;32.70;18.60;;;;;;10407543;28;20233;-75
2023/07/10 19:10:54;;;;;;;4.23;3.93;;;32.60;18.30;;;;;;10395835;28;20245;-75
2023/07/10 19:16:01;;;;;;;4.13;3.73;;;32.40;18.40;;;;;;10409040;28;20239;-74
2023/07/10 19:21:05;;;;;;;4.30;4.00;;;32.20;17.50;;;;;;10407191;28;20267;-75
2023/07/10 19:26:08;;;;;;;3.77;3.47;;;32.00;18.10;;;;;;10408335;28;20233;-75
2023/07/10 19:31:15;;;;;;;3.90;3.60;;;31.90;18.20;;;;;;10404979;28;20887;-75
2023/07/10 19:36:23;;;;;;;3.97;3.60;;;31.80;17.90;;;;;;10410726;28;20242;-76
2023/07/10 19:41:26;;;;;;;4.00;3.67;;;31.60;17.80;;;;;;10408644;28;20229;-75
2023/07/10 19:46:31;;;;;;;3.60;3.30;;;31.50;18.70;;;;;;10405392;28;20652;-77
2023/07/10 19:51:34;;;;;;;4.07;3.77;;;31.50;18.90;;;;;;10408534;28;20230;-75
2023/07/10 19:56:37;;;;;;;4.00;3.70;;;31.50;18.80;;;;;;10408543;28;20240;-75
2023/07/10 20:01:42;;;;;;;4.13;3.83;;;31.30;19.10;;;;;;10419436;28;20308;-76
2023/07/10 20:06:46;;;;;;;4.10;3.80;;;31.30;19.20;;;;;;10410173;28;20768;-76
2023/07/10 20:11:50;;;;;;;4.10;3.80;;;31.10;19.30;;;;;;10413941;28;20233;-75
2023/07/10 20:16:55;;;;;;;4.27;3.87;;;31.00;19.50;;;;;;10407271;28;20321;-75
2023/07/10 20:21:58;;;;;;;4.77;3.90;;;30.80;19.60;;;;;;10413884;28;20233;-75
2023/07/10 20:27:01;;;;;;;4.17;3.87;;;30.70;19.80;;;;;;10408365;28;20264;-75
2023/07/10 20:32:12;;;;;;;4.13;3.80;;;30.60;20.00;;;;;;10405451;28;20757;-75
2023/07/10 20:37:18;;;;;;;4.13;3.80;;;30.40;19.90;;;;;;10410505;28;20625;-75
2023/07/10 20:42:21;;;;;;;4.23;3.83;;;30.30;20.60;;;;;;10409390;28;20308;-75
2023/07/10 20:47:26;;;;;;;3.93;3.60;;;30.20;20.40;;;;;;10405120;28;20238;-75
2023/07/10 20:52:29;;;;;;;4.20;3.90;;;30.10;21.20;;;;;;10406055;28;20378;-75
2023/07/10 20:57:32;;;;;;;4.60;4.20;;;30.00;21.10;;;;;;10411636;28;20237;-75
2023/07/10 21:02:39;;;;;;;4.30;4.00;;;30.00;21.10;;;;;;10409559;28;20249;-75
2023/07/10 21:07:43;;;;;;;5.43;4.93;;;29.80;21.00;;;;;;10404126;28;20253;-75
2023/07/10 21:12:46;;;;;;;5.60;5.10;;;29.60;20.90;;;;;;10410332;28;20388;-75
2023/07/10 21:17:51;;;;;;;5.00;4.50;;;29.30;21.40;;;;;;10405330;28;20237;-75
2023/07/10 21:22:55;;;;;;;6.63;4.50;;;29.00;22.20;;;;;;10412233;28;20218;-75
2023/07/10 21:27:58;;;;;;;4.80;4.33;;;28.70;22.30;;;;;;10404381;28;20761;-75
2023/07/10 21:33:03;;;;;;;5.27;4.27;;;28.40;22.70;;;;;;10403096;28;20308;-75
2023/07/10 21:38:06;;;;;;;4.97;4.50;;;28.30;23.10;;;;;;10408993;28;20221;-75
2023/07/10 21:43:19;;;;;;;4.93;4.50;;;28.00;23.10;;;;;;10421945;28;20336;-75
2023/07/10 21:48:25;;;;;;;5.33;4.83;;;27.80;24.20;;;;;;10402989;28;20302;-74
2023/07/10 21:53:30;;;;;;;5.17;4.67;;;27.60;24.40;;;;;;10403756;28;20283;-75
2023/07/10 21:58:36;;;;;;;5.20;4.70;;;27.40;24.50;;;;;;10411673;28;20938;-75
2023/07/10 22:03:41;;;;;;;5.43;4.63;;;27.40;25.20;;;;;;10420352;28;20217;-75
2023/07/10 22:08:44;;;;;;;4.77;4.37;;;27.40;25.20;;;;;;10415846;28;20230;-75
2023/07/10 22:13:48;;;;;;;5.07;4.57;;;27.40;25.10;;;;;;10414091;28;20293;-75
2023/07/10 22:18:54;;;;;;;4.97;4.57;;;27.30;25.10;;;;;;10417069;28;20325;-75
2023/07/10 22:23:58;;;;;;;5.30;4.80;;;27.30;25.70;;;;;;10425696;28;20792;-75
2023/07/10 22:29:03;;;;;;;4.77;4.40;;;27.20;25.30;;;;;;10416350;28;20256;-75
2023/07/10 22:34:08;;;;;;;5.27;4.77;;;27.20;25.30;;;;;;10411830;28;20233;-75
2023/07/10 22:39:11;;;;;;;5.57;5.07;;;27.20;26.00;;;;;;10415648;28;20710;-75
2023/07/10 22:44:17;;;;;;;5.73;5.20;;;27.00;25.60;;;;;;10410353;28;20565;-75
2023/07/10 22:49:24;;;;;;;5.53;5.03;;;26.80;26.00;;;;;;10413431;28;20303;-75
2023/07/10 22:54:28;;;;;;;5.20;4.80;;;26.50;26.50;;;;;;10412957;28;20229;-75
2023/07/10 22:59:31;;;;;;;5.63;5.13;;;26.40;26.20;;;;;;10408191;28;20225;-75
2023/07/10 23:04:35;;;;;;;5.00;4.60;;;26.20;26.50;;;;;;10414821;28;20313;-75
2023/07/10 23:09:39;;;;;;;5.47;4.90;;;26.00;27.30;;;;;;10411022;28;20312;-75
2023/07/10 23:14:42;;;;;;;5.37;4.87;;;25.90;27.10;;;;;;10419465;28;20644;-75
2023/07/10 23:19:46;;;;;;;4.43;4.03;;;25.90;27.20;;;;;;10414171;28;20245;-75
2023/07/10 23:24:49;;;;;;;5.43;4.67;;;25.90;27.50;;;;;;10411780;28;20308;-75
2023/07/10 23:29:53;;;;;;;5.30;4.80;;;25.90;27.50;;;;;;10412968;28;20789;-75
2023/07/10 23:34:57;;;;;;;5.43;4.93;;;25.90;27.50;;;;;;10415551;28;20605;-75
2023/07/10 23:40:11;;;;;;;5.73;5.23;;;25.80;27.90;;;;;;10406082;28;20218;-75
2023/07/10 23:45:16;;;;;;;5.40;4.90;;;25.60;27.80;;;;;;10409051;28;20313;-74
2023/07/10 23:50:21;;;;;;;4.63;4.23;;;25.40;28.10;;;;;;10408937;28;20226;-74
2023/07/10 23:55:24;;;;;;;4.90;4.50;;;25.30;28.80;;;;;;10412119;28;20237;-74
